sensor_id;sensor_type;location;lat;lon;timestamp;P1;durP1;ratioP1;P2;durP2;ratioP2
24261;SDS011;12385;51.412;5.540;2023-05-29T00:01:43;11.93;;;5.35;;
24261;SDS011;12385;51.412;5.540;2023-05-29T00:04:09;11.77;;;5.45;;
24261;SDS011;12385;51.412;5.540;2023-05-29T00:06:37;13.35;;;6.53;;
24261;SDS011;12385;51.412;5.540;2023-05-29T00:09:02;17.00;;;6.43;;
24261;SDS011;12385;51.412;5.540;2023-05-29T00:11:29;16.63;;;6.38;;
24261;SDS011;12385;51.412;5.540;2023-05-29T00:13:55;14.77;;;6.13;;
24261;SDS011;12385;51.412;5.540;2023-05-29T00:16:21;15.00;;;6.20;;
24261;SDS011;12385;51.412;5.540;2023-05-29T00:18:48;14.48;;;6.20;;
24261;SDS011;12385;51.412;5.540;2023-05-29T00:21:15;14.02;;;6.28;;
24261;SDS011;12385;51.412;5.540;2023-05-29T00:23:41;13.20;;;6.18;;
24261;SDS011;12385;51.412;5.540;2023-05-29T00:26:07;15.27;;;6.10;;
24261;SDS011;12385;51.412;5.540;2023-05-29T00:28:33;21.33;;;5.85;;
24261;SDS011;12385;51.412;5.540;2023-05-29T00:31:00;12.38;;;5.65;;
24261;SDS011;12385;51.412;5.540;2023-05-29T00:33:25;17.65;;;6.05;;
24261;SDS011;12385;51.412;5.540;2023-05-29T00:35:51;13.65;;;5.97;;
24261;SDS011;12385;51.412;5.540;2023-05-29T00:38:17;17.02;;;5.80;;
24261;SDS011;12385;51.412;5.540;2023-05-29T00:40:42;14.68;;;6.10;;
24261;SDS011;12385;51.412;5.540;2023-05-29T00:43:08;16.98;;;6.18;;
24261;SDS011;12385;51.412;5.540;2023-05-29T00:45:34;14.82;;;5.55;;
24261;SDS011;12385;51.412;5.540;2023-05-29T00:48:03;17.33;;;5.40;;
24261;SDS011;12385;51.412;5.540;2023-05-29T00:50:30;17.65;;;5.38;;
24261;SDS011;12385;51.412;5.540;2023-05-29T00:52:56;17.30;;;5.05;;
24261;SDS011;12385;51.412;5.540;2023-05-29T00:55:23;18.23;;;4.32;;
24261;SDS011;12385;51.412;5.540;2023-05-29T00:57:49;14.80;;;4.40;;
24261;SDS011;12385;51.412;5.540;2023-05-29T01:00:15;16.33;;;4.25;;
24261;SDS011;12385;51.412;5.540;2023-05-29T01:02:41;19.02;;;4.47;;
24261;SDS011;12385;51.412;5.540;2023-05-29T01:05:10;18.52;;;4.57;;
24261;SDS011;12385;51.412;5.540;2023-05-29T01:07:36;19.63;;;4.13;;
24261;SDS011;12385;51.412;5.540;2023-05-29T01:10:02;16.23;;;5.22;;
24261;SDS011;12385;51.412;5.540;2023-05-29T01:26:05;15.70;;;3.95;;
24261;SDS011;12385;51.412;5.540;2023-05-29T01:28:47;15.88;;;3.53;;
24261;SDS011;12385;51.412;5.540;2023-05-29T01:31:14;18.17;;;3.25;;
24261;SDS011;12385;51.412;5.540;2023-05-29T01:33:55;15.57;;;3.17;;
24261;SDS011;12385;51.412;5.540;2023-05-29T01:36:22;22.50;;;3.65;;
24261;SDS011;12385;51.412;5.540;2023-05-29T01:38:49;18.20;;;3.40;;
24261;SDS011;12385;51.412;5.540;2023-05-29T01:41:16;15.60;;;3.33;;
24261;SDS011;12385;51.412;5.540;2023-05-29T01:43:43;18.30;;;3.35;;
24261;SDS011;12385;51.412;5.540;2023-05-29T01:46:11;18.42;;;3.63;;
24261;SDS011;12385;51.412;5.540;2023-05-29T01:48:38;19.63;;;3.65;;
24261;SDS011;12385;51.412;5.540;2023-05-29T01:51:03;18.83;;;3.92;;
24261;SDS011;12385;51.412;5.540;2023-05-29T01:53:29;20.40;;;3.22;;
24261;SDS011;12385;51.412;5.540;2023-05-29T01:55:55;20.02;;;3.53;;
24261;SDS011;12385;51.412;5.540;2023-05-29T01:58:21;15.90;;;3.47;;
24261;SDS011;12385;51.412;5.540;2023-05-29T02:00:48;17.60;;;3.42;;
24261;SDS011;12385;51.412;5.540;2023-05-29T02:03:14;18.35;;;3.95;;
24261;SDS011;12385;51.412;5.540;2023-05-29T02:05:39;16.85;;;3.63;;
24261;SDS011;12385;51.412;5.540;2023-05-29T02:08:05;14.75;;;3.15;;
24261;SDS011;12385;51.412;5.540;2023-05-29T02:10:30;16.67;;;3.30;;
24261;SDS011;12385;51.412;5.540;2023-05-29T02:12:57;16.05;;;3.10;;
24261;SDS011;12385;51.412;5.540;2023-05-29T02:15:22;20.58;;;3.17;;
24261;SDS011;12385;51.412;5.540;2023-05-29T02:17:49;21.25;;;3.40;;
24261;SDS011;12385;51.412;5.540;2023-05-29T02:20:15;11.95;;;3.03;;
24261;SDS011;12385;51.412;5.540;2023-05-29T02:22:41;15.25;;;3.35;;
24261;SDS011;12385;51.412;5.540;2023-05-29T02:25:07;16.13;;;3.05;;
24261;SDS011;12385;51.412;5.540;2023-05-29T02:27:33;17.23;;;3.00;;
24261;SDS011;12385;51.412;5.540;2023-05-29T02:29:58;18.60;;;3.45;;
24261;SDS011;12385;51.412;5.540;2023-05-29T02:32:25;13.10;;;3.60;;
24261;SDS011;12385;51.412;5.540;2023-05-29T02:34:52;17.10;;;3.65;;
24261;SDS011;12385;51.412;5.540;2023-05-29T02:37:18;17.30;;;3.38;;
24261;SDS011;12385;51.412;5.540;2023-05-29T02:39:44;17.77;;;3.50;;
24261;SDS011;12385;51.412;5.540;2023-05-29T02:42:09;18.08;;;3.35;;
24261;SDS011;12385;51.412;5.540;2023-05-29T02:44:35;16.83;;;3.40;;
24261;SDS011;12385;51.412;5.540;2023-05-29T02:47:01;21.13;;;3.30;;
24261;SDS011;12385;51.412;5.540;2023-05-29T02:49:26;17.08;;;3.60;;
24261;SDS011;12385;51.412;5.540;2023-05-29T02:51:52;18.63;;;3.50;;
24261;SDS011;12385;51.412;5.540;2023-05-29T02:54:23;20.48;;;3.30;;
24261;SDS011;12385;51.412;5.540;2023-05-29T02:56:49;20.48;;;3.60;;
24261;SDS011;12385;51.412;5.540;2023-05-29T02:59:15;13.88;;;3.58;;
24261;SDS011;12385;51.412;5.540;2023-05-29T03:01:41;24.73;;;3.67;;
24261;SDS011;12385;51.412;5.540;2023-05-29T03:04:08;13.38;;;3.20;;
24261;SDS011;12385;51.412;5.540;2023-05-29T03:06:34;25.17;;;3.65;;
24261;SDS011;12385;51.412;5.540;2023-05-29T03:09:01;22.17;;;3.88;;
24261;SDS011;12385;51.412;5.540;2023-05-29T03:11:27;18.95;;;3.60;;
24261;SDS011;12385;51.412;5.540;2023-05-29T03:13:54;14.30;;;3.67;;
24261;SDS011;12385;51.412;5.540;2023-05-29T03:16:20;17.17;;;3.60;;
24261;SDS011;12385;51.412;5.540;2023-05-29T03:18:46;18.90;;;3.35;;
24261;SDS011;12385;51.412;5.540;2023-05-29T03:21:12;23.08;;;3.70;;
24261;SDS011;12385;51.412;5.540;2023-05-29T03:23:39;21.38;;;3.65;;
24261;SDS011;12385;51.412;5.540;2023-05-29T03:26:04;17.85;;;3.42;;
24261;SDS011;12385;51.412;5.540;2023-05-29T03:28:30;22.05;;;3.60;;
24261;SDS011;12385;51.412;5.540;2023-05-29T03:30:56;21.48;;;3.40;;
24261;SDS011;12385;51.412;5.540;2023-05-29T03:33:22;23.67;;;4.80;;
24261;SDS011;12385;51.412;5.540;2023-05-29T03:35:48;24.90;;;3.80;;
24261;SDS011;12385;51.412;5.540;2023-05-29T03:38:14;25.63;;;3.90;;
24261;SDS011;12385;51.412;5.540;2023-05-29T03:40:39;18.85;;;3.50;;
24261;SDS011;12385;51.412;5.540;2023-05-29T03:43:05;21.52;;;3.65;;
24261;SDS011;12385;51.412;5.540;2023-05-29T03:45:31;20.58;;;3.85;;
24261;SDS011;12385;51.412;5.540;2023-05-29T03:47:56;16.05;;;3.42;;
24261;SDS011;12385;51.412;5.540;2023-05-29T03:50:22;14.60;;;2.95;;
24261;SDS011;12385;51.412;5.540;2023-05-29T03:52:48;24.52;;;4.30;;
24261;SDS011;12385;51.412;5.540;2023-05-29T03:55:14;20.77;;;3.83;;
24261;SDS011;12385;51.412;5.540;2023-05-29T03:57:40;24.85;;;3.88;;
24261;SDS011;12385;51.412;5.540;2023-05-29T04:00:09;26.80;;;3.92;;
24261;SDS011;12385;51.412;5.540;2023-05-29T04:02:36;28.50;;;3.97;;
24261;SDS011;12385;51.412;5.540;2023-05-29T04:05:06;28.10;;;4.28;;
24261;SDS011;12385;51.412;5.540;2023-05-29T04:07:35;25.00;;;4.00;;
24261;SDS011;12385;51.412;5.540;2023-05-29T04:10:04;21.05;;;3.33;;
24261;SDS011;12385;51.412;5.540;2023-05-29T04:12:31;20.27;;;4.15;;
24261;SDS011;12385;51.412;5.540;2023-05-29T04:14:58;22.65;;;3.63;;
24261;SDS011;12385;51.412;5.540;2023-05-29T04:17:24;19.33;;;3.38;;
24261;SDS011;12385;51.412;5.540;2023-05-29T04:19:49;27.10;;;4.40;;
24261;SDS011;12385;51.412;5.540;2023-05-29T04:22:15;24.70;;;4.22;;
24261;SDS011;12385;51.412;5.540;2023-05-29T04:24:41;26.70;;;3.63;;
24261;SDS011;12385;51.412;5.540;2023-05-29T04:27:07;24.65;;;4.20;;
24261;SDS011;12385;51.412;5.540;2023-05-29T04:29:34;20.38;;;3.38;;
24261;SDS011;12385;51.412;5.540;2023-05-29T04:32:00;23.90;;;3.83;;
24261;SDS011;12385;51.412;5.540;2023-05-29T04:34:29;24.35;;;3.53;;
24261;SDS011;12385;51.412;5.540;2023-05-29T04:36:57;28.15;;;3.63;;
24261;SDS011;12385;51.412;5.540;2023-05-29T04:39:23;22.17;;;3.70;;
24261;SDS011;12385;51.412;5.540;2023-05-29T04:41:50;22.70;;;3.88;;
24261;SDS011;12385;51.412;5.540;2023-05-29T04:44:16;22.08;;;3.70;;
24261;SDS011;12385;51.412;5.540;2023-05-29T04:46:42;24.38;;;3.90;;
24261;SDS011;12385;51.412;5.540;2023-05-29T04:49:12;22.85;;;4.32;;
24261;SDS011;12385;51.412;5.540;2023-05-29T04:51:40;20.05;;;4.13;;
24261;SDS011;12385;51.412;5.540;2023-05-29T04:54:06;25.25;;;4.25;;
24261;SDS011;12385;51.412;5.540;2023-05-29T04:56:34;24.25;;;3.45;;
24261;SDS011;12385;51.412;5.540;2023-05-29T04:58:59;18.25;;;3.30;;
24261;SDS011;12385;51.412;5.540;2023-05-29T05:01:25;18.95;;;3.65;;
24261;SDS011;12385;51.412;5.540;2023-05-29T05:03:50;21.83;;;3.63;;
24261;SDS011;12385;51.412;5.540;2023-05-29T05:06:20;24.05;;;3.70;;
24261;SDS011;12385;51.412;5.540;2023-05-29T05:08:46;25.90;;;4.22;;
24261;SDS011;12385;51.412;5.540;2023-05-29T05:11:12;24.88;;;3.67;;
24261;SDS011;12385;51.412;5.540;2023-05-29T05:13:38;19.70;;;3.13;;
24261;SDS011;12385;51.412;5.540;2023-05-29T05:16:04;26.58;;;3.95;;
24261;SDS011;12385;51.412;5.540;2023-05-29T05:18:30;26.13;;;3.70;;
24261;SDS011;12385;51.412;5.540;2023-05-29T05:20:56;18.77;;;3.75;;
24261;SDS011;12385;51.412;5.540;2023-05-29T05:23:21;23.20;;;3.67;;
24261;SDS011;12385;51.412;5.540;2023-05-29T05:25:47;23.95;;;4.13;;
24261;SDS011;12385;51.412;5.540;2023-05-29T05:28:12;21.77;;;3.92;;
24261;SDS011;12385;51.412;5.540;2023-05-29T05:30:38;20.45;;;3.85;;
24261;SDS011;12385;51.412;5.540;2023-05-29T05:33:04;22.00;;;3.70;;
24261;SDS011;12385;51.412;5.540;2023-05-29T05:35:29;20.13;;;3.38;;
24261;SDS011;12385;51.412;5.540;2023-05-29T05:37:55;20.02;;;3.40;;
24261;SDS011;12385;51.412;5.540;2023-05-29T05:40:23;22.02;;;3.75;;
24261;SDS011;12385;51.412;5.540;2023-05-29T05:42:50;20.02;;;3.88;;
24261;SDS011;12385;51.412;5.540;2023-05-29T05:45:15;21.40;;;3.30;;
24261;SDS011;12385;51.412;5.540;2023-05-29T05:47:41;18.63;;;3.70;;
24261;SDS011;12385;51.412;5.540;2023-05-29T05:50:07;24.73;;;3.30;;
24261;SDS011;12385;51.412;5.540;2023-05-29T05:52:33;22.02;;;3.33;;
24261;SDS011;12385;51.412;5.540;2023-05-29T05:54:59;19.70;;;3.65;;
24261;SDS011;12385;51.412;5.540;2023-05-29T05:57:24;24.45;;;3.70;;
24261;SDS011;12385;51.412;5.540;2023-05-29T05:59:50;20.25;;;3.45;;
24261;SDS011;12385;51.412;5.540;2023-05-29T06:02:16;23.85;;;3.65;;
24261;SDS011;12385;51.412;5.540;2023-05-29T06:04:42;24.55;;;3.95;;
24261;SDS011;12385;51.412;5.540;2023-05-29T06:07:08;19.52;;;3.65;;
24261;SDS011;12385;51.412;5.540;2023-05-29T06:09:33;23.08;;;3.55;;
24261;SDS011;12385;51.412;5.540;2023-05-29T06:11:59;19.75;;;4.00;;
24261;SDS011;12385;51.412;5.540;2023-05-29T06:14:25;24.75;;;3.50;;
24261;SDS011;12385;51.412;5.540;2023-05-29T06:16:50;24.30;;;3.55;;
24261;SDS011;12385;51.412;5.540;2023-05-29T06:19:16;24.23;;;3.45;;
24261;SDS011;12385;51.412;5.540;2023-05-29T06:21:42;21.63;;;3.40;;
24261;SDS011;12385;51.412;5.540;2023-05-29T06:24:08;20.77;;;3.72;;
24261;SDS011;12385;51.412;5.540;2023-05-29T06:26:33;20.42;;;3.78;;
24261;SDS011;12385;51.412;5.540;2023-05-29T06:28:59;23.27;;;3.85;;
24261;SDS011;12385;51.412;5.540;2023-05-29T06:31:25;24.05;;;3.38;;
24261;SDS011;12385;51.412;5.540;2023-05-29T06:33:50;23.52;;;4.10;;
24261;SDS011;12385;51.412;5.540;2023-05-29T06:36:16;26.85;;;4.00;;
24261;SDS011;12385;51.412;5.540;2023-05-29T06:38:49;27.95;;;3.30;;
24261;SDS011;12385;51.412;5.540;2023-05-29T06:41:15;21.58;;;3.53;;
24261;SDS011;12385;51.412;5.540;2023-05-29T06:43:41;22.52;;;3.47;;
24261;SDS011;12385;51.412;5.540;2023-05-29T06:46:07;22.77;;;3.90;;
24261;SDS011;12385;51.412;5.540;2023-05-29T06:48:33;21.45;;;3.72;;
24261;SDS011;12385;51.412;5.540;2023-05-29T06:51:00;20.70;;;3.60;;
24261;SDS011;12385;51.412;5.540;2023-05-29T06:53:26;22.05;;;3.97;;
24261;SDS011;12385;51.412;5.540;2023-05-29T06:55:52;18.95;;;3.28;;
24261;SDS011;12385;51.412;5.540;2023-05-29T06:58:18;24.10;;;3.50;;
24261;SDS011;12385;51.412;5.540;2023-05-29T07:00:43;21.83;;;3.40;;
24261;SDS011;12385;51.412;5.540;2023-05-29T07:03:09;20.40;;;3.60;;
24261;SDS011;12385;51.412;5.540;2023-05-29T07:05:34;21.38;;;3.85;;
24261;SDS011;12385;51.412;5.540;2023-05-29T07:08:00;19.98;;;3.85;;
24261;SDS011;12385;51.412;5.540;2023-05-29T07:10:26;21.63;;;3.15;;
24261;SDS011;12385;51.412;5.540;2023-05-29T07:12:51;21.75;;;3.70;;
24261;SDS011;12385;51.412;5.540;2023-05-29T07:15:17;18.75;;;3.40;;
24261;SDS011;12385;51.412;5.540;2023-05-29T07:17:42;21.40;;;4.05;;
24261;SDS011;12385;51.412;5.540;2023-05-29T07:20:08;17.60;;;3.30;;
24261;SDS011;12385;51.412;5.540;2023-05-29T07:22:34;21.02;;;3.40;;
24261;SDS011;12385;51.412;5.540;2023-05-29T07:25:00;20.15;;;3.30;;
24261;SDS011;12385;51.412;5.540;2023-05-29T07:27:26;18.75;;;3.47;;
24261;SDS011;12385;51.412;5.540;2023-05-29T07:29:53;21.00;;;3.85;;
24261;SDS011;12385;51.412;5.540;2023-05-29T07:32:18;16.73;;;3.33;;
24261;SDS011;12385;51.412;5.540;2023-05-29T07:34:44;21.10;;;3.47;;
24261;SDS011;12385;51.412;5.540;2023-05-29T07:37:10;16.98;;;3.30;;
24261;SDS011;12385;51.412;5.540;2023-05-29T07:39:36;19.80;;;3.17;;
24261;SDS011;12385;51.412;5.540;2023-05-29T07:42:02;21.10;;;3.10;;
24261;SDS011;12385;51.412;5.540;2023-05-29T07:44:28;15.98;;;3.33;;
24261;SDS011;12385;51.412;5.540;2023-05-29T07:46:54;16.70;;;3.47;;
24261;SDS011;12385;51.412;5.540;2023-05-29T07:49:20;17.75;;;3.30;;
24261;SDS011;12385;51.412;5.540;2023-05-29T07:51:46;21.77;;;3.30;;
24261;SDS011;12385;51.412;5.540;2023-05-29T07:54:11;16.88;;;3.08;;
24261;SDS011;12385;51.412;5.540;2023-05-29T07:56:37;17.65;;;3.20;;
24261;SDS011;12385;51.412;5.540;2023-05-29T07:59:03;14.55;;;3.03;;
24261;SDS011;12385;51.412;5.540;2023-05-29T08:01:30;18.33;;;3.22;;
24261;SDS011;12385;51.412;5.540;2023-05-29T08:03:56;19.88;;;3.33;;
24261;SDS011;12385;51.412;5.540;2023-05-29T08:06:22;18.10;;;3.05;;
24261;SDS011;12385;51.412;5.540;2023-05-29T08:08:47;13.38;;;3.10;;
24261;SDS011;12385;51.412;5.540;2023-05-29T08:11:13;17.15;;;2.95;;
24261;SDS011;12385;51.412;5.540;2023-05-29T08:13:39;20.02;;;2.70;;
24261;SDS011;12385;51.412;5.540;2023-05-29T08:16:04;14.98;;;3.13;;
24261;SDS011;12385;51.412;5.540;2023-05-29T08:18:31;15.98;;;3.17;;
24261;SDS011;12385;51.412;5.540;2023-05-29T08:23:25;16.33;;;2.95;;
24261;SDS011;12385;51.412;5.540;2023-05-29T08:25:51;17.48;;;3.20;;
24261;SDS011;12385;51.412;5.540;2023-05-29T08:28:17;14.13;;;2.60;;
24261;SDS011;12385;51.412;5.540;2023-05-29T08:30:42;17.15;;;2.75;;
24261;SDS011;12385;51.412;5.540;2023-05-29T08:33:08;16.52;;;2.70;;
24261;SDS011;12385;51.412;5.540;2023-05-29T08:35:33;12.95;;;2.83;;
24261;SDS011;12385;51.412;5.540;2023-05-29T08:37:59;15.75;;;3.03;;
24261;SDS011;12385;51.412;5.540;2023-05-29T08:40:25;17.08;;;2.90;;
24261;SDS011;12385;51.412;5.540;2023-05-29T08:42:53;15.90;;;3.10;;
24261;SDS011;12385;51.412;5.540;2023-05-29T08:45:23;15.52;;;2.83;;
24261;SDS011;12385;51.412;5.540;2023-05-29T08:47:51;16.45;;;3.10;;
24261;SDS011;12385;51.412;5.540;2023-05-29T08:50:19;16.52;;;3.05;;
24261;SDS011;12385;51.412;5.540;2023-05-29T08:52:46;16.92;;;2.85;;
24261;SDS011;12385;51.412;5.540;2023-05-29T08:55:12;15.70;;;2.90;;
24261;SDS011;12385;51.412;5.540;2023-05-29T08:57:38;18.38;;;3.38;;
24261;SDS011;12385;51.412;5.540;2023-05-29T09:00:05;16.73;;;3.22;;
24261;SDS011;12385;51.412;5.540;2023-05-29T09:02:40;14.52;;;2.65;;
24261;SDS011;12385;51.412;5.540;2023-05-29T09:05:10;16.85;;;3.15;;
24261;SDS011;12385;51.412;5.540;2023-05-29T09:07:37;14.18;;;2.80;;
24261;SDS011;12385;51.412;5.540;2023-05-29T09:10:10;14.32;;;3.00;;
24261;SDS011;12385;51.412;5.540;2023-05-29T09:12:36;16.30;;;3.58;;
24261;SDS011;12385;51.412;5.540;2023-05-29T09:15:02;16.52;;;2.95;;
24261;SDS011;12385;51.412;5.540;2023-05-29T09:17:31;12.88;;;3.03;;
24261;SDS011;12385;51.412;5.540;2023-05-29T09:19:58;16.83;;;2.95;;
24261;SDS011;12385;51.412;5.540;2023-05-29T09:22:23;11.68;;;2.60;;
24261;SDS011;12385;51.412;5.540;2023-05-29T09:24:49;17.45;;;2.83;;
24261;SDS011;12385;51.412;5.540;2023-05-29T09:27:15;13.32;;;2.75;;
24261;SDS011;12385;51.412;5.540;2023-05-29T09:29:42;15.38;;;2.95;;
24261;SDS011;12385;51.412;5.540;2023-05-29T09:32:10;18.10;;;2.97;;
24261;SDS011;12385;51.412;5.540;2023-05-29T09:34:36;10.52;;;2.70;;
24261;SDS011;12385;51.412;5.540;2023-05-29T09:37:03;17.30;;;3.00;;
24261;SDS011;12385;51.412;5.540;2023-05-29T09:39:34;15.68;;;3.25;;
24261;SDS011;12385;51.412;5.540;2023-05-29T09:42:09;15.32;;;3.10;;
24261;SDS011;12385;51.412;5.540;2023-05-29T09:44:36;11.70;;;2.90;;
24261;SDS011;12385;51.412;5.540;2023-05-29T09:47:01;13.85;;;2.72;;
24261;SDS011;12385;51.412;5.540;2023-05-29T09:49:27;16.58;;;3.25;;
24261;SDS011;12385;51.412;5.540;2023-05-29T09:51:56;10.40;;;2.33;;
24261;SDS011;12385;51.412;5.540;2023-05-29T09:54:24;13.05;;;2.35;;
24261;SDS011;12385;51.412;5.540;2023-05-29T09:56:54;16.05;;;2.92;;
24261;SDS011;12385;51.412;5.540;2023-05-29T09:59:21;14.38;;;2.90;;
24261;SDS011;12385;51.412;5.540;2023-05-29T10:01:49;10.25;;;2.67;;
24261;SDS011;12385;51.412;5.540;2023-05-29T10:04:26;19.23;;;2.90;;
24261;SDS011;12385;51.412;5.540;2023-05-29T10:06:52;13.60;;;2.55;;
24261;SDS011;12385;51.412;5.540;2023-05-29T10:09:22;10.52;;;2.45;;
24261;SDS011;12385;51.412;5.540;2023-05-29T10:11:52;14.98;;;2.55;;
24261;SDS011;12385;51.412;5.540;2023-05-29T10:14:23;13.70;;;2.75;;
24261;SDS011;12385;51.412;5.540;2023-05-29T10:16:50;12.73;;;2.65;;
24261;SDS011;12385;51.412;5.540;2023-05-29T10:19:21;10.45;;;2.10;;
24261;SDS011;12385;51.412;5.540;2023-05-29T10:21:50;9.90;;;2.20;;
24261;SDS011;12385;51.412;5.540;2023-05-29T10:24:18;12.65;;;2.63;;
24261;SDS011;12385;51.412;5.540;2023-05-29T10:26:46;13.75;;;2.70;;
24261;SDS011;12385;51.412;5.540;2023-05-29T10:40:16;11.65;;;2.72;;
24261;SDS011;12385;51.412;5.540;2023-05-29T10:42:49;15.65;;;3.03;;
24261;SDS011;12385;51.412;5.540;2023-05-29T10:48:49;13.80;;;3.05;;
24261;SDS011;12385;51.412;5.540;2023-05-29T10:50:53;12.40;;;2.58;;
24261;SDS011;12385;51.412;5.540;2023-05-29T10:53:23;15.38;;;2.65;;
24261;SDS011;12385;51.412;5.540;2023-05-29T10:55:51;9.15;;;2.85;;
24261;SDS011;12385;51.412;5.540;2023-05-29T10:58:18;12.70;;;2.45;;
24261;SDS011;12385;51.412;5.540;2023-05-29T11:00:45;16.05;;;2.80;;
24261;SDS011;12385;51.412;5.540;2023-05-29T11:03:14;9.18;;;2.53;;
24261;SDS011;12385;51.412;5.540;2023-05-29T11:06:02;18.45;;;3.17;;
24261;SDS011;12385;51.412;5.540;2023-05-29T11:11:30;9.98;;;2.55;;
24261;SDS011;12385;51.412;5.540;2023-05-29T11:14:06;9.48;;;2.30;;
24261;SDS011;12385;51.412;5.540;2023-05-29T11:18:58;9.48;;;2.60;;
24261;SDS011;12385;51.412;5.540;2023-05-29T11:21:33;11.32;;;2.42;;
24261;SDS011;12385;51.412;5.540;2023-05-29T11:24:21;9.50;;;2.50;;
24261;SDS011;12385;51.412;5.540;2023-05-29T11:26:49;10.35;;;2.33;;
24261;SDS011;12385;51.412;5.540;2023-05-29T11:29:23;12.93;;;2.55;;
24261;SDS011;12385;51.412;5.540;2023-05-29T11:34:28;11.45;;;2.80;;
24261;SDS011;12385;51.412;5.540;2023-05-29T11:37:00;8.75;;;2.22;;
24261;SDS011;12385;51.412;5.540;2023-05-29T11:39:26;6.97;;;2.47;;
24261;SDS011;12385;51.412;5.540;2023-05-29T11:41:53;12.10;;;2.60;;
24261;SDS011;12385;51.412;5.540;2023-05-29T11:44:20;8.82;;;2.38;;
24261;SDS011;12385;51.412;5.540;2023-05-29T11:46:58;7.78;;;2.00;;
24261;SDS011;12385;51.412;5.540;2023-05-29T11:49:31;11.65;;;2.50;;
24261;SDS011;12385;51.412;5.540;2023-05-29T11:52:05;12.48;;;2.33;;
24261;SDS011;12385;51.412;5.540;2023-05-29T11:54:40;7.88;;;2.28;;
24261;SDS011;12385;51.412;5.540;2023-05-29T11:57:17;9.88;;;2.17;;
24261;SDS011;12385;51.412;5.540;2023-05-29T11:59:44;9.95;;;2.42;;
24261;SDS011;12385;51.412;5.540;2023-05-29T12:02:10;12.40;;;2.20;;
24261;SDS011;12385;51.412;5.540;2023-05-29T12:04:36;6.88;;;2.00;;
24261;SDS011;12385;51.412;5.540;2023-05-29T12:07:02;9.10;;;2.50;;
24261;SDS011;12385;51.412;5.540;2023-05-29T12:09:42;9.68;;;2.13;;
24261;SDS011;12385;51.412;5.540;2023-05-29T12:12:08;9.10;;;2.15;;
24261;SDS011;12385;51.412;5.540;2023-05-29T12:14:34;7.80;;;2.08;;
24261;SDS011;12385;51.412;5.540;2023-05-29T12:17:00;11.35;;;2.38;;
24261;SDS011;12385;51.412;5.540;2023-05-29T12:19:26;11.23;;;2.30;;
24261;SDS011;12385;51.412;5.540;2023-05-29T12:21:52;9.88;;;2.33;;
24261;SDS011;12385;51.412;5.540;2023-05-29T12:24:18;7.72;;;2.10;;
24261;SDS011;12385;51.412;5.540;2023-05-29T12:26:44;11.60;;;2.08;;
24261;SDS011;12385;51.412;5.540;2023-05-29T12:29:12;9.77;;;2.30;;
24261;SDS011;12385;51.412;5.540;2023-05-29T12:31:38;8.55;;;2.20;;
24261;SDS011;12385;51.412;5.540;2023-05-29T12:34:11;6.80;;;2.22;;
24261;SDS011;12385;51.412;5.540;2023-05-29T12:36:41;11.05;;;2.50;;
24261;SDS011;12385;51.412;5.540;2023-05-29T12:39:08;10.68;;;2.50;;
24261;SDS011;12385;51.412;5.540;2023-05-29T12:41:34;8.93;;;2.28;;
24261;SDS011;12385;51.412;5.540;2023-05-29T12:44:02;9.30;;;2.50;;
24261;SDS011;12385;51.412;5.540;2023-05-29T12:46:35;9.80;;;2.40;;
24261;SDS011;12385;51.412;5.540;2023-05-29T12:49:14;7.95;;;2.28;;
24261;SDS011;12385;51.412;5.540;2023-05-29T12:51:41;12.00;;;2.38;;
24261;SDS011;12385;51.412;5.540;2023-05-29T12:54:12;12.80;;;2.10;;
24261;SDS011;12385;51.412;5.540;2023-05-29T12:56:39;12.95;;;2.50;;
24261;SDS011;12385;51.412;5.540;2023-05-29T12:59:06;7.57;;;2.15;;
24261;SDS011;12385;51.412;5.540;2023-05-29T13:01:32;10.05;;;2.10;;
24261;SDS011;12385;51.412;5.540;2023-05-29T13:03:58;7.68;;;2.00;;
24261;SDS011;12385;51.412;5.540;2023-05-29T13:06:24;9.40;;;2.00;;
24261;SDS011;12385;51.412;5.540;2023-05-29T13:08:50;10.63;;;2.15;;
24261;SDS011;12385;51.412;5.540;2023-05-29T13:11:15;10.30;;;2.38;;
24261;SDS011;12385;51.412;5.540;2023-05-29T13:13:41;9.63;;;2.30;;
24261;SDS011;12385;51.412;5.540;2023-05-29T13:16:07;8.07;;;2.30;;
24261;SDS011;12385;51.412;5.540;2023-05-29T13:18:39;6.70;;;2.38;;
24261;SDS011;12385;51.412;5.540;2023-05-29T13:21:05;8.48;;;1.98;;
24261;SDS011;12385;51.412;5.540;2023-05-29T13:23:30;11.50;;;2.47;;
24261;SDS011;12385;51.412;5.540;2023-05-29T13:25:56;9.50;;;2.22;;
24261;SDS011;12385;51.412;5.540;2023-05-29T13:28:22;10.95;;;2.53;;
24261;SDS011;12385;51.412;5.540;2023-05-29T13:30:49;12.50;;;2.80;;
24261;SDS011;12385;51.412;5.540;2023-05-29T13:33:15;10.63;;;2.17;;
24261;SDS011;12385;51.412;5.540;2023-05-29T13:35:41;8.77;;;2.08;;
24261;SDS011;12385;51.412;5.540;2023-05-29T13:38:06;7.50;;;2.22;;
24261;SDS011;12385;51.412;5.540;2023-05-29T13:40:32;10.23;;;1.98;;
24261;SDS011;12385;51.412;5.540;2023-05-29T13:42:58;9.88;;;2.25;;
24261;SDS011;12385;51.412;5.540;2023-05-29T13:45:24;6.63;;;1.90;;
24261;SDS011;12385;51.412;5.540;2023-05-29T13:47:49;8.50;;;2.22;;
24261;SDS011;12385;51.412;5.540;2023-05-29T13:50:15;8.35;;;2.30;;
24261;SDS011;12385;51.412;5.540;2023-05-29T13:52:40;10.65;;;2.28;;
24261;SDS011;12385;51.412;5.540;2023-05-29T13:55:06;8.93;;;2.08;;
24261;SDS011;12385;51.412;5.540;2023-05-29T13:57:34;7.75;;;2.80;;
24261;SDS011;12385;51.412;5.540;2023-05-29T14:00:01;13.73;;;3.58;;
24261;SDS011;12385;51.412;5.540;2023-05-29T14:02:27;12.90;;;3.00;;
24261;SDS011;12385;51.412;5.540;2023-05-29T14:04:53;11.80;;;2.88;;
24261;SDS011;12385;51.412;5.540;2023-05-29T14:07:19;10.18;;;2.60;;
24261;SDS011;12385;51.412;5.540;2023-05-29T14:09:44;11.13;;;2.72;;
24261;SDS011;12385;51.412;5.540;2023-05-29T14:12:10;12.88;;;2.72;;
24261;SDS011;12385;51.412;5.540;2023-05-29T14:14:35;11.20;;;2.70;;
24261;SDS011;12385;51.412;5.540;2023-05-29T14:17:02;8.98;;;2.22;;
24261;SDS011;12385;51.412;5.540;2023-05-29T14:19:29;11.35;;;2.55;;
24261;SDS011;12385;51.412;5.540;2023-05-29T14:21:55;9.35;;;2.70;;
24261;SDS011;12385;51.412;5.540;2023-05-29T14:24:21;10.75;;;2.60;;
24261;SDS011;12385;51.412;5.540;2023-05-29T14:26:46;11.07;;;2.42;;
24261;SDS011;12385;51.412;5.540;2023-05-29T14:29:12;8.13;;;2.10;;
24261;SDS011;12385;51.412;5.540;2023-05-29T14:31:39;10.57;;;3.15;;
24261;SDS011;12385;51.412;5.540;2023-05-29T14:34:05;10.85;;;2.45;;
24261;SDS011;12385;51.412;5.540;2023-05-29T14:36:31;9.57;;;2.58;;
24261;SDS011;12385;51.412;5.540;2023-05-29T14:38:57;10.20;;;2.65;;
24261;SDS011;12385;51.412;5.540;2023-05-29T14:41:22;11.18;;;2.85;;
24261;SDS011;12385;51.412;5.540;2023-05-29T14:43:50;10.15;;;2.60;;
24261;SDS011;12385;51.412;5.540;2023-05-29T14:46:16;13.00;;;2.90;;
24261;SDS011;12385;51.412;5.540;2023-05-29T14:48:42;11.10;;;2.78;;
24261;SDS011;12385;51.412;5.540;2023-05-29T14:51:08;9.95;;;2.78;;
24261;SDS011;12385;51.412;5.540;2023-05-29T14:53:35;9.23;;;2.78;;
24261;SDS011;12385;51.412;5.540;2023-05-29T14:56:01;11.38;;;2.63;;
24261;SDS011;12385;51.412;5.540;2023-05-29T14:58:26;14.60;;;3.15;;
24261;SDS011;12385;51.412;5.540;2023-05-29T15:00:52;14.23;;;2.90;;
24261;SDS011;12385;51.412;5.540;2023-05-29T15:05:51;12.40;;;3.03;;
24261;SDS011;12385;51.412;5.540;2023-05-29T15:08:16;16.42;;;2.50;;
24261;SDS011;12385;51.412;5.540;2023-05-29T15:10:43;7.30;;;2.42;;
24261;SDS011;12385;51.412;5.540;2023-05-29T15:13:08;10.88;;;2.55;;
24261;SDS011;12385;51.412;5.540;2023-05-29T15:15:34;9.05;;;2.72;;